Time;durP1;ratioP1;P1;durP2;ratioP2;P2;SDS_P1;SDS_P2;PMS_P1;PMS_P2;Temp;Humidity;BMP_temperature;BMP_pressure;BME280_temperature;BME280_humidity;BME280_pressure;Samples;Min_cycle;Max_cycle;Signal;HPM_P1;HPM_P2
2021/08/03 00:02:24;;;;;;;9.02;3.85;;;;;;;12.53;93.83;101001.97;5052711;28;20048;-69
2021/08/03 00:04:55;;;;;;;6.15;2.90;;;;;;;12.57;93.81;101006.81;5051989;28;20028;-69
2021/08/03 00:07:21;;;;;;;6.70;2.60;;;;;;;12.59;93.81;101009.28;5052186;28;20036;-69
2021/08/03 00:09:48;;;;;;;4.78;2.67;;;;;;;12.67;93.93;101007.44;5070080;28;20029;-69
2021/08/03 00:12:16;;;;;;;6.43;2.58;;;;;;;12.75;93.93;101013.81;5069177;28;20036;-69
2021/08/03 00:14:47;;;;;;;5.55;2.40;;;;;;;12.79;93.64;101004.44;5069043;28;20036;-69
2021/08/03 00:17:20;;;;;;;5.85;2.33;;;;;;;12.82;94.04;101009.44;5069820;28;20040;-69
2021/08/03 00:19:46;;;;;;;8.32;2.78;;;;;;;12.77;93.72;101006.44;5068971;28;20966;-69
2021/08/03 00:22:12;;;;;;;8.03;2.83;;;;;;;12.80;93.89;101006.91;5069769;28;20111;-69
2021/08/03 00:24:39;;;;;;;6.18;2.75;;;;;;;12.87;93.89;101009.75;5068978;28;20127;-69
2021/08/03 00:27:06;;;;;;;8.30;2.80;;;;;;;12.94;93.72;101001.88;5068386;28;20143;-69
2021/08/03 00:29:32;;;;;;;13.38;2.88;;;;;;;13.01;93.11;101006.34;5069977;28;20033;-69
2021/08/03 00:31:59;;;;;;;6.65;2.80;;;;;;;13.06;93.20;101011.19;5069698;28;20461;-69
2021/08/03 00:34:24;;;;;;;3.83;2.28;;;;;;;13.10;92.87;101001.81;5052226;28;20032;-69
2021/08/03 00:36:50;;;;;;;4.95;2.08;;;;;;;13.16;92.94;101000.28;5068647;28;20028;-69
2021/08/03 00:39:17;;;;;;;4.72;1.85;;;;;;;13.15;92.64;100998.63;5068337;28;20033;-69
2021/08/03 00:41:52;;;;;;;4.32;2.85;;;;;;;13.15;93.02;101014.69;5068674;28;20528;-69
2021/08/03 00:44:18;;;;;;;12.82;3.00;;;;;;;13.21;92.75;101003.31;5052102;28;20032;-69
2021/08/03 00:46:44;;;;;;;7.07;2.05;;;;;;;13.22;93.06;101004.97;5051630;28;20515;-69
2021/08/03 00:49:12;;;;;;;4.43;1.92;;;;;;;13.18;92.59;101015.22;5052524;28;20032;-69
2021/08/03 00:51:37;;;;;;;4.57;1.90;;;;;;;13.24;92.39;101013.66;5068418;28;20469;-69
2021/08/03 00:54:03;;;;;;;7.03;2.03;;;;;;;13.26;92.48;101017.00;5069622;28;20043;-69
2021/08/03 00:56:30;;;;;;;5.93;2.67;;;;;;;13.32;92.04;101023.53;5068307;28;20033;-69
2021/08/03 00:58:56;;;;;;;5.35;2.45;;;;;;;13.39;92.08;101024.53;5069489;28;20474;-69
2021/08/03 01:01:22;;;;;;;5.47;1.97;;;;;;;13.38;92.48;101020.19;5068773;28;20107;-69
2021/08/03 01:03:47;;;;;;;4.90;1.93;;;;;;;13.36;92.21;101011.47;5068453;28;20490;-69
2021/08/03 01:06:36;;;;;;;7.63;2.37;;;;;;;13.44;92.24;101014.13;5069108;28;20283;-69
2021/08/03 01:09:19;;;;;;;3.08;1.50;;;;;;;13.45;92.23;101015.78;5069486;28;20047;-69
2021/08/03 01:11:59;;;;;;;5.38;3.05;;;;;;;13.36;92.65;101006.94;5068465;28;20372;-70
2021/08/03 01:14:50;;;;;;;4.97;1.70;;;;;;;13.44;92.54;101014.97;5068231;28;20040;-69
2021/08/03 01:17:29;;;;;;;4.32;2.00;;;;;;;13.45;92.82;101008.56;5051787;28;20036;-69
2021/08/03 01:20:11;;;;;;;7.45;2.03;;;;;;;13.44;92.60;101001.56;5068534;28;20040;-69
2021/08/03 01:22:50;;;;;;;6.60;2.72;;;;;;;13.43;92.31;101007.91;5069167;28;20136;-69
2021/08/03 01:25:41;;;;;;;10.43;2.45;;;;;;;13.47;91.86;101001.19;5068280;28;20507;-69
2021/08/03 01:28:16;;;;;;;7.50;2.58;;;;;;;13.41;91.42;100993.84;5067724;28;20123;-69
2021/08/03 01:30:49;;;;;;;3.97;1.88;;;;;;;13.43;90.68;101002.53;5068619;28;20111;-69
2021/08/03 01:33:19;;;;;;;8.55;2.38;;;;;;;13.37;90.67;101005.94;5067855;28;20028;-69
2021/08/03 01:35:45;;;;;;;8.05;2.03;;;;;;;13.41;90.79;101012.59;5068214;28;20107;-69
2021/08/03 01:38:14;;;;;;;6.45;2.30;;;;;;;13.37;90.97;101014.00;5069307;28;20032;-69
2021/08/03 01:40:42;;;;;;;5.78;2.15;;;;;;;13.27;91.10;101016.88;5068369;28;20047;-69
2021/08/03 01:43:08;;;;;;;5.25;2.25;;;;;;;13.20;91.16;101018.53;5068268;28;20090;-69
2021/08/03 01:45:36;;;;;;;6.75;2.63;;;;;;;13.19;91.27;101018.72;5066699;28;20033;-70
2021/08/03 01:48:04;;;;;;;6.53;2.83;;;;;;;13.11;91.57;101022.28;5068277;28;20366;-69
2021/08/03 01:50:36;;;;;;;3.78;2.33;;;;;;;13.13;92.13;101017.53;5068332;28;20036;-69
2021/08/03 01:53:07;;;;;;;11.15;2.70;;;;;;;13.10;91.54;101016.03;5071386;28;20034;-69
2021/08/03 01:55:34;;;;;;;6.60;2.50;;;;;;;13.08;91.66;101020.75;5055051;28;20031;-69
2021/08/03 01:58:06;;;;;;;11.25;3.00;;;;;;;13.08;92.22;101031.47;5072799;28;20021;-69
2021/08/03 02:00:42;;;;;;;6.35;2.50;;;;;;;13.04;92.18;101024.78;5071947;28;20249;-69
2021/08/03 02:03:15;;;;;;;9.80;3.30;;;;;;;12.93;92.49;101024.31;5056119;28;20533;-69
2021/08/03 02:05:43;;;;;;;5.18;2.58;;;;;;;12.92;92.98;101031.50;5072307;28;20032;-69
2021/08/03 02:08:19;;;;;;;6.65;3.50;;;;;;;12.99;93.19;101037.84;5072075;28;20127;-69
2021/08/03 02:10:47;;;;;;;6.97;3.35;;;;;;;12.94;93.12;101034.84;5055322;28;20064;-69
2021/08/03 02:13:16;;;;;;;8.25;2.95;;;;;;;12.86;93.55;101037.56;5055262;28;20036;-69
2021/08/03 02:15:42;;;;;;;6.72;2.88;;;;;;;12.75;93.79;101029.88;5072185;28;20085;-69
2021/08/03 02:18:08;;;;;;;8.88;3.80;;;;;;;12.72;94.19;101046.28;5071524;28;20430;-69
2021/08/03 02:20:42;;;;;;;5.35;2.85;;;;;;;12.66;94.44;101039.75;5071437;28;20043;-69
2021/08/03 02:23:08;;;;;;;7.45;3.90;;;;;;;12.61;94.75;101032.22;5072612;28;20037;-69
2021/08/03 02:25:39;;;;;;;8.07;3.42;;;;;;;12.64;95.14;101037.25;5072104;28;20037;-69
2021/08/03 02:28:06;;;;;;;5.13;3.15;;;;;;;12.58;95.24;101027.22;5070720;28;20028;-69
2021/08/03 02:30:32;;;;;;;;;;;;;;;12.63;95.30;101032.91;5071697;28;20028;-69
2021/08/03 02:33:03;;;;;;;11.95;3.63;;;;;;;12.59;95.17;101026.19;5071497;28;19912;-69
2021/08/03 02:35:39;;;;;;;12.20;3.65;;;;;;;12.62;95.56;101025.06;5054669;28;20024;-69
2021/08/03 02:38:11;;;;;;;8.63;3.63;;;;;;;12.73;95.53;101030.03;5071387;28;20855;-69
2021/08/03 02:40:41;;;;;;;7.53;3.80;;;;;;;12.75;95.12;101036.06;5072401;28;20071;-69
2021/08/03 02:43:19;;;;;;;7.85;3.65;;;;;;;12.70;95.08;101032.22;5072411;28;20103;-69
2021/08/03 02:45:48;;;;;;;5.78;3.00;;;;;;;12.67;95.09;101033.41;5070973;28;20035;-69
2021/08/03 02:48:16;;;;;;;6.90;2.90;;;;;;;12.65;95.32;101041.59;5071903;28;20120;-69
2021/08/03 02:50:45;;;;;;;6.20;3.05;;;;;;;12.64;95.76;101034.59;5071282;28;20040;-69
2021/08/03 02:53:29;;;;;;;7.10;3.97;;;;;;;12.67;95.78;101036.91;5070967;28;20051;-69
2021/08/03 02:55:58;;;;;;;7.38;3.53;;;;;;;12.72;95.95;101035.59;5071572;28;20188;-69
2021/08/03 02:58:32;;;;;;;8.45;3.47;;;;;;;12.73;95.24;101037.25;5072004;28;20111;-69
2021/08/03 03:01:00;;;;;;;8.10;3.40;;;;;;;12.78;95.31;101034.88;5054315;28;20119;-69
2021/08/03 03:03:30;;;;;;;5.13;3.28;;;;;;;12.83;95.28;101035.22;5053783;28;20032;-69
2021/08/03 03:06:06;;;;;;;8.20;4.05;;;;;;;12.85;95.24;101036.75;5053780;28;20025;-69
2021/08/03 03:08:38;;;;;;;9.10;3.42;;;;;;;12.82;95.00;101044.25;5070782;28;20032;-70
2021/08/03 03:11:06;;;;;;;14.00;4.57;;;;;;;12.79;95.08;101041.94;5071749;28;20029;-69
2021/08/03 03:13:56;;;;;;;7.72;3.58;;;;;;;12.70;95.10;101042.94;5070518;28;20074;-69
2021/08/03 03:16:24;;;;;;;7.57;4.15;;;;;;;12.66;95.24;101048.63;5053771;28;20028;-69
2021/08/03 03:18:52;;;;;;;8.43;3.05;;;;;;;12.60;95.40;101049.31;5071509;28;20177;-69
2021/08/03 03:21:21;;;;;;;17.20;4.60;;;;;;;12.58;95.11;101051.31;5070604;28;20028;-69
2021/08/03 03:23:53;;;;;;;8.63;3.50;;;;;;;12.59;95.06;101052.97;5070066;28;20032;-69
2021/08/03 03:26:24;;;;;;;7.20;3.50;;;;;;;12.53;95.02;101053.66;5071010;28;20028;-69
2021/08/03 03:28:51;;;;;;;8.35;3.50;;;;;;;12.57;94.92;101038.94;5071278;28;20090;-69
2021/08/03 03:31:18;;;;;;;7.65;3.05;;;;;;;12.55;94.96;101049.00;5070518;28;20032;-69
2021/08/03 03:33:46;;;;;;;5.38;3.13;;;;;;;12.60;94.95;101040.44;5070177;28;20020;-69
2021/08/03 03:36:13;;;;;;;5.65;3.17;;;;;;;12.60;94.64;101038.59;5070655;28;20408;-69
2021/08/03 03:38:42;;;;;;;7.97;3.45;;;;;;;12.64;94.69;101041.75;5070076;28;20028;-69
2021/08/03 03:41:08;;;;;;;7.65;3.42;;;;;;;12.65;94.49;101048.81;5070220;28;20342;-69
2021/08/03 03:43:34;;;;;;;4.75;3.20;;;;;;;12.71;94.32;101045.44;5070979;28;20361;-69
2021/08/03 03:46:04;;;;;;;8.98;2.92;;;;;;;12.67;94.33;101050.31;5053145;28;20024;-69
2021/08/03 03:48:34;;;;;;;6.10;3.17;;;;;;;12.75;94.49;101040.59;5069973;28;20036;-69
2021/08/03 03:51:03;;;;;;;6.03;3.65;;;;;;;12.65;94.62;101041.59;5071012;28;20043;-69
2021/08/03 03:53:39;;;;;;;10.15;3.92;;;;;;;12.77;94.74;101054.66;5070030;28;20059;-69
2021/08/03 03:56:06;;;;;;;10.95;4.00;;;;;;;12.78;94.51;101051.81;5070545;28;20052;-69
2021/08/03 03:58:35;;;;;;;7.70;3.10;;;;;;;12.85;94.51;101046.59;5069930;28;20063;-69
2021/08/03 04:01:01;;;;;;;7.15;3.78;;;;;;;12.81;94.24;101056.00;5069774;28;20105;-69
2021/08/03 04:03:29;;;;;;;12.27;4.30;;;;;;;12.91;94.48;101053.13;5070766;28;20461;-69
2021/08/03 04:05:55;;;;;;;7.78;3.47;;;;;;;12.93;94.16;101049.28;5069047;28;20024;-69
2021/08/03 04:08:22;;;;;;;17.63;3.97;;;;;;;13.01;94.36;101049.25;5069663;28;20105;-69
2021/08/03 04:10:48;;;;;;;9.85;3.55;;;;;;;13.18;94.27;101054.56;5069540;28;20060;-70
2021/08/03 04:13:14;;;;;;;6.50;3.53;;;;;;;13.12;94.04;101053.41;5069606;28;20042;-69
2021/08/03 04:15:40;;;;;;;14.70;4.65;;;;;;;13.16;94.10;101064.63;5068668;28;20012;-70
2021/08/03 04:18:06;;;;;;;9.43;3.83;;;;;;;13.22;94.34;101063.94;5069328;28;20139;-69
2021/08/03 04:20:33;;;;;;;7.40;3.13;;;;;;;13.23;94.15;101061.09;5068941;28;20029;-69
2021/08/03 04:22:59;;;;;;;6.97;3.47;;;;;;;13.18;93.98;101065.28;5070285;28;20450;-69
2021/08/03 04:25:25;;;;;;;9.20;3.43;;;;;;;13.23;94.01;101062.94;5068928;28;20035;-69
2021/08/03 04:27:50;;;;;;;10.40;3.33;;;;;;;13.22;94.02;101074.66;5051737;28;20033;-69
2021/08/03 04:30:17;;;;;;;6.32;3.15;;;;;;;13.18;93.98;101065.28;5070133;28;20089;-69
2021/08/03 04:32:43;;;;;;;10.30;4.03;;;;;;;13.15;93.65;101066.47;5069246;28;20044;-69
2021/08/03 04:35:09;;;;;;;9.13;3.92;;;;;;;13.18;94.11;101065.28;5069151;28;20044;-69
2021/08/03 04:37:39;;;;;;;;;;;;;;;13.25;93.97;101063.59;5052345;28;20032;-69
2021/08/03 04:40:05;;;;;;;8.10;3.45;;;;;;;13.29;93.77;101054.22;5070138;28;19912;-69
2021/08/03 04:42:31;;;;;;;;;;;;;;;13.29;93.86;101060.41;5070094;28;20036;-69
2021/08/03 04:44:56;;;;;;;;;;;;;;;13.39;93.13;101057.56;5069537;28;20357;-69
2021/08/03 04:47:21;;;;;;;7.57;3.57;;;;;;;13.53;93.34;101061.34;5069550;28;19921;-69
2021/08/03 04:49:47;;;;;;;8.50;3.57;;;;;;;13.66;93.07;101050.88;5069028;28;20028;-69
2021/08/03 04:52:12;;;;;;;8.63;3.13;;;;;;;13.66;92.20;101053.56;5068506;28;20024;-68
2021/08/03 04:54:37;;;;;;;6.83;2.40;;;;;;;13.67;91.70;101057.94;5069791;28;20510;-69
2021/08/03 04:57:03;;;;;;;9.87;3.47;;;;;;;13.64;91.69;101060.13;5068314;28;20473;-69
2021/08/03 04:59:28;;;;;;;8.13;3.70;;;;;;;13.68;91.84;101056.09;5068969;28;20021;-69
2021/08/03 05:01:53;;;;;;;4.40;2.83;;;;;;;13.73;91.97;101051.03;5068624;28;20032;-68
2021/08/03 05:04:19;;;;;;;6.43;3.10;;;;;;;13.63;91.50;101047.75;5068678;28;20063;-69
2021/08/03 05:06:44;;;;;;;13.13;4.00;;;;;;;13.72;91.96;101057.41;5068338;28;20040;-69
2021/08/03 05:09:09;;;;;;;5.27;2.93;;;;;;;13.90;92.03;101060.66;5068791;28;20081;-68
2021/08/03 05:11:35;;;;;;;7.37;3.70;;;;;;;14.03;90.51;101062.78;5069851;28;20855;-69
2021/08/03 05:14:00;;;;;;;5.33;2.90;;;;;;;14.06;89.96;101061.56;5069450;28;20472;-69
2021/08/03 05:16:28;;;;;;;5.93;3.30;;;;;;;14.04;90.16;101055.53;5068249;28;20577;-69
2021/08/03 05:18:54;;;;;;;7.57;3.90;;;;;;;14.11;90.33;101056.50;5068962;28;20029;-69
2021/08/03 05:21:19;;;;;;;9.20;2.63;;;;;;;14.30;89.42;101065.94;5069267;28;20047;-69
2021/08/03 05:23:44;;;;;;;6.83;2.70;;;;;;;14.33;88.60;101069.13;5068982;28;20496;-69
2021/08/03 05:26:10;;;;;;;5.80;2.90;;;;;;;14.16;88.53;101056.78;5070308;28;20029;-69
2021/08/03 05:28:35;;;;;;;4.80;2.90;;;;;;;14.24;89.21;101069.34;5071311;28;20037;-69
2021/08/03 05:31:01;;;;;;;4.67;2.73;;;;;;;14.42;88.05;101066.34;5073237;28;20044;-69
2021/08/03 05:33:26;;;;;;;8.40;2.73;;;;;;;14.82;87.82;101073.28;5071803;28;20055;-69
2021/08/03 05:35:51;;;;;;;5.27;2.87;;;;;;;15.17;86.07;101077.13;5072945;28;20058;-68
2021/08/03 05:38:17;;;;;;;4.87;2.70;;;;;;;15.69;83.78;101079.88;5073150;28;20025;-69
2021/08/03 05:40:42;;;;;;;3.93;2.07;;;;;;;16.10;80.67;101076.66;5072558;28;20060;-68
2021/08/03 05:43:07;;;;;;;5.70;2.60;;;;;;;16.36;81.07;101082.28;5072318;28;20469;-69
2021/08/03 05:45:33;;;;;;;4.90;2.73;;;;;;;16.73;78.41;101088.44;5055108;28;20376;-69
2021/08/03 05:47:58;;;;;;;6.10;2.07;;;;;;;16.41;78.63;101077.19;5072102;28;20097;-69
2021/08/03 05:50:24;;;;;;;6.40;2.57;;;;;;;16.25;78.32;101083.66;5072757;28;20032;-69
2021/08/03 05:52:49;;;;;;;6.17;1.83;;;;;;;16.01;77.83;101076.78;5072092;28;20036;-69
2021/08/03 05:55:14;;;;;;;5.60;1.83;;;;;;;16.11;78.16;101078.31;5071747;28;20743;-69
2021/08/03 05:57:40;;;;;;;4.50;2.40;;;;;;;16.08;77.38;101084.09;5071901;28;20133;-69
2021/08/03 06:00:06;;;;;;;9.40;2.30;;;;;;;16.03;77.95;101082.78;5071721;28;20047;-69
2021/08/03 06:02:38;;;;;;;4.78;1.83;;;;;;;16.12;78.20;101086.19;5073015;28;20040;-69
2021/08/03 06:05:04;;;;;;;4.03;2.03;;;;;;;16.03;78.38;101080.09;5072323;28;20032;-69
2021/08/03 06:07:36;;;;;;;3.42;1.63;;;;;;;16.06;79.10;101088.81;5072606;28;20036;-69
2021/08/03 06:10:02;;;;;;;3.30;1.90;;;;;;;15.83;79.23;101087.97;5072665;28;20033;-69
2021/08/03 06:12:28;;;;;;;4.57;2.72;;;;;;;15.61;80.72;101084.31;5071681;28;20105;-69
2021/08/03 06:14:55;;;;;;;;;;;;;;;16.33;77.95;101101.56;5071924;28;20457;-69
2021/08/03 06:17:32;;;;;;;3.40;1.40;;;;;;;17.62;73.59;101093.19;5071060;28;19965;-69
2021/08/03 06:19:58;;;;;;;9.73;2.17;;;;;;;18.82;67.16;101088.13;5070942;28;20477;-69
2021/08/03 06:22:26;;;;;;;3.25;1.40;;;;;;;19.84;65.13;101085.84;5071778;28;20165;-69
2021/08/03 06:24:51;;;;;;;7.00;1.90;;;;;;;20.50;61.92;101083.78;5070997;28;20044;-69
2021/08/03 06:27:19;;;;;;;5.07;1.60;;;;;;;20.36;63.04;101085.75;5070488;28;20036;-69
2021/08/03 06:29:45;;;;;;;5.32;1.60;;;;;;;21.07;59.95;101090.84;5071603;28;20485;-70
2021/08/03 06:32:12;;;;;;;5.57;1.92;;;;;;;18.98;64.14;101092.28;5071215;28;20037;-70
2021/08/03 06:34:40;;;;;;;2.88;1.48;;;;;;;19.89;64.56;101090.59;5072164;28;20115;-69
2021/08/03 06:37:06;;;;;;;2.40;1.38;;;;;;;21.20;58.72;101099.91;5070198;28;20024;-69
2021/08/03 06:39:32;;;;;;;9.18;2.08;;;;;;;20.76;58.95;101093.59;5072326;28;20063;-70
2021/08/03 06:42:05;;;;;;;2.17;1.30;;;;;;;20.85;60.30;101090.41;5071933;28;20568;-70
2021/08/03 06:44:58;;;;;;;3.58;1.33;;;;;;;21.69;59.14;101077.22;5070957;28;20032;-70
2021/08/03 06:47:27;;;;;;;2.22;1.13;;;;;;;21.71;56.68;101091.41;5069118;28;20127;-70
2021/08/03 06:49:54;;;;;;;3.20;1.10;;;;;;;20.48;60.75;101097.53;5071874;28;20032;-70
2021/08/03 06:52:21;;;;;;;2.72;1.05;;;;;;;21.18;58.01;101088.44;5070465;28;20491;-70
2021/08/03 06:54:50;;;;;;;3.15;1.33;;;;;;;20.85;58.59;101092.28;5071740;28;20495;-70
2021/08/03 06:57:17;;;;;;;3.35;1.10;;;;;;;20.88;57.61;101091.81;5070201;28;20622;-70
2021/08/03 06:59:48;;;;;;;;;;;;;;;21.25;56.41;101087.28;5054627;28;20055;-70
2021/08/03 07:02:25;;;;;;;3.67;1.20;;;;;;;20.69;57.66;101088.22;5070406;28;19922;-70
2021/08/03 07:04:58;;;;;;;3.53;1.55;;;;;;;20.49;57.85;101076.69;5071378;28;20036;-70
2021/08/03 07:07:25;;;;;;;1.48;0.90;;;;;;;19.36;60.76;101089.72;5071088;28;20629;-70
2021/08/03 07:09:52;;;;;;;4.85;1.30;;;;;;;20.00;58.64;101095.34;5070857;28;20044;-70
2021/08/03 07:12:17;;;;;;;4.90;1.17;;;;;;;20.47;59.66;101095.88;5070234;28;20048;-70
2021/08/03 07:14:42;;;;;;;2.17;1.33;;;;;;;19.03;61.98;101081.66;5071253;28;20036;-70
2021/08/03 07:17:12;;;;;;;6.33;1.13;;;;;;;18.58;62.21;101086.84;5070056;28;20361;-69
2021/08/03 07:19:39;;;;;;;4.65;1.00;;;;;;;19.12;62.01;101093.09;5070136;28;20274;-69
2021/08/03 07:22:08;;;;;;;2.55;0.80;;;;;;;19.47;59.77;101090.09;5071259;28;20029;-70
2021/08/03 07:24:34;;;;;;;3.83;0.98;;;;;;;19.85;58.67;101086.66;5070772;28;20071;-69
2021/08/03 07:26:59;;;;;;;3.30;0.90;;;;;;;19.74;60.09;101097.13;5069860;28;20076;-69
2021/08/03 07:29:25;;;;;;;3.50;0.80;;;;;;;20.52;58.04;101093.34;5070391;28;20543;-70
2021/08/03 07:31:50;;;;;;;2.03;0.88;;;;;;;20.45;57.29;101093.38;5071180;28;20280;-70
2021/08/03 07:34:16;;;;;;;2.77;1.13;;;;;;;19.87;58.41;101090.81;5069679;28;20070;-70
2021/08/03 07:36:41;;;;;;;4.07;0.93;;;;;;;19.69;59.71;101088.81;5069851;28;20111;-70
2021/08/03 07:39:08;;;;;;;3.37;1.00;;;;;;;19.61;59.65;101091.72;5069763;28;20093;-70
2021/08/03 07:41:37;;;;;;;3.00;1.00;;;;;;;20.12;55.77;101087.38;5070843;28;20028;-70
2021/08/03 07:44:04;;;;;;;1.50;0.93;;;;;;;20.46;56.92;101096.94;5069563;28;20109;-70
2021/08/03 07:46:31;;;;;;;3.20;0.93;;;;;;;21.11;56.44;101093.91;5069486;28;20070;-70
2021/08/03 07:48:57;;;;;;;1.13;0.77;;;;;;;21.49;54.93;101098.34;5069621;28;20478;-70
2021/08/03 07:51:24;;;;;;;4.28;1.38;;;;;;;20.57;55.75;101090.00;5069528;28;20043;-70
2021/08/03 07:53:49;;;;;;;4.00;0.93;;;;;;;19.19;59.43;101088.50;5069418;28;20050;-70
2021/08/03 07:56:15;;;;;;;2.80;1.03;;;;;;;18.89;63.51;101097.06;5069594;28;20032;-69
2021/08/03 07:58:41;;;;;;;1.60;0.80;;;;;;;18.47;62.21;101096.41;5070624;28;20063;-70
2021/08/03 08:01:07;;;;;;;4.25;1.40;;;;;;;18.38;62.13;101089.53;5070319;28;20412;-70
2021/08/03 08:03:35;;;;;;;2.42;1.00;;;;;;;18.90;59.71;101089.81;5069093;28;20033;-70
2021/08/03 08:06:02;;;;;;;1.23;0.60;;;;;;;18.29;61.59;101079.97;5068797;28;20063;-70
2021/08/03 08:08:27;;;;;;;1.92;1.00;;;;;;;19.22;60.55;101089.94;5069991;28;20021;-69
2021/08/03 08:10:53;;;;;;;1.33;0.80;;;;;;;19.54;58.42;101090.91;5067594;28;20098;-70
2021/08/03 08:13:19;;;;;;;3.10;0.90;;;;;;;19.39;58.99;101089.28;5068659;28;20128;-70
2021/08/03 08:15:44;;;;;;;1.93;0.80;;;;;;;18.96;63.02;101088.94;5067169;28;20031;-70
2021/08/03 08:18:10;;;;;;;1.65;0.60;;;;;;;18.76;60.59;101083.53;5068602;28;20040;-70
2021/08/03 08:20:41;;;;;;;1.70;1.27;;;;;;;18.63;58.69;101089.75;5067613;28;20043;-70
2021/08/03 08:23:08;;;;;;;1.92;0.80;;;;;;;17.88;61.13;101080.88;5067801;28;20101;-70
2021/08/03 08:25:33;;;;;;;3.90;1.45;;;;;;;17.95;60.83;101080.91;5051855;28;20032;-69
2021/08/03 08:27:59;;;;;;;3.10;0.70;;;;;;;18.18;60.05;101080.56;5068625;28;20044;-70
2021/08/03 08:30:24;;;;;;;1.47;0.70;;;;;;;18.46;59.70;101089.34;5069093;28;20105;-70
2021/08/03 08:32:49;;;;;;;1.03;0.73;;;;;;;18.76;57.87;101083.53;5069694;28;20672;-70
2021/08/03 08:35:15;;;;;;;2.83;1.23;;;;;;;18.79;57.34;101079.59;5069935;28;20036;-70
2021/08/03 08:37:40;;;;;;;2.83;0.90;;;;;;;18.19;59.02;101076.81;5069427;28;20130;-70
2021/08/03 08:40:07;;;;;;;3.17;0.83;;;;;;;18.17;59.16;101071.63;5068984;28;20038;-69
2021/08/03 08:42:34;;;;;;;0.95;0.65;;;;;;;18.63;59.05;101080.81;5068446;28;20030;-70
2021/08/03 08:45:01;;;;;;;2.78;1.15;;;;;;;19.00;57.28;101084.78;5052045;28;20024;-70
2021/08/03 08:47:27;;;;;;;2.45;0.80;;;;;;;19.17;55.61;101080.63;5068360;28;20036;-70
2021/08/03 08:49:54;;;;;;;1.48;0.70;;;;;;;19.68;55.84;101081.72;5069065;28;20029;-70
2021/08/03 08:52:20;;;;;;;1.45;0.90;;;;;;;19.43;56.84;101073.44;5068535;28;20458;-70
2021/08/03 08:54:45;;;;;;;3.88;1.27;;;;;;;19.30;57.08;101085.16;5052031;28;20031;-70
2021/08/03 08:57:12;;;;;;;1.50;0.60;;;;;;;18.97;56.55;101069.81;5069385;28;20615;-70
2021/08/03 08:59:38;;;;;;;3.42;2.13;;;;;;;18.94;55.83;101070.25;5069890;28;20673;-70
2021/08/03 09:02:04;;;;;;;4.18;1.42;;;;;;;18.95;54.16;101069.19;5072791;28;20067;-70
2021/08/03 09:04:30;;;;;;;4.75;1.00;;;;;;;19.03;57.27;101073.53;5072623;28;20445;-70
2021/08/03 09:07:05;;;;;;;2.55;0.70;;;;;;;18.86;57.35;101075.84;5072551;28;20052;-70
2021/08/03 09:09:45;;;;;;;1.00;0.60;;;;;;;19.39;57.24;101085.75;5073028;28;20101;-70
2021/08/03 09:12:12;;;;;;;3.40;0.98;;;;;;;19.72;55.58;101076.72;5073508;28;20161;-70
2021/08/03 09:14:44;;;;;;;1.55;1.00;;;;;;;19.39;54.44;101078.47;5072662;28;20079;-70
2021/08/03 09:17:24;;;;;;;1.42;1.08;;;;;;;19.99;55.87;101078.25;5073438;28;20032;-70
2021/08/03 09:19:49;;;;;;;1.42;0.82;;;;;;;20.27;54.92;101074.31;5073629;28;20041;-70
2021/08/03 09:22:23;;;;;;;2.83;1.03;;;;;;;19.95;55.96;101065.38;5072647;28;20595;-70
2021/08/03 09:24:51;;;;;;;2.53;0.80;;;;;;;21.13;53.99;101074.69;5072228;28;20033;-71
2021/08/03 09:27:37;;;;;;;1.67;1.00;;;;;;;21.78;47.94;101072.31;5072247;28;20036;-70
2021/08/03 09:30:03;;;;;;;;;;;;;;;22.47;46.66;101071.97;5073719;28;20450;-70
2021/08/03 09:32:29;;;;;;;;;;;;;;;21.80;47.09;101066.66;5072727;28;19973;-70
2021/08/03 09:35:12;;;;;;;2.90;1.02;;;;;;;22.05;48.21;101063.78;5073046;28;19935;-70
2021/08/03 09:37:40;;;;;;;3.08;0.80;;;;;;;23.18;47.99;101062.81;5072022;28;20450;-70
2021/08/03 09:40:17;;;;;;;0.95;0.70;;;;;;;23.01;46.39;101067.31;5073085;28;20024;-70
2021/08/03 09:42:42;;;;;;;2.10;1.02;;;;;;;22.07;49.19;101067.09;5055483;28;20052;-70
2021/08/03 09:45:09;;;;;;;1.87;1.40;;;;;;;22.93;46.06;101070.38;5071708;28;20039;-70
2021/08/03 09:47:35;;;;;;;;;;;;;;;23.92;44.36;101064.88;5072283;28;20025;-71
2021/08/03 09:50:08;;;;;;;2.95;0.82;;;;;;;24.00;45.63;101061.78;5055384;28;19927;-71
2021/08/03 09:52:37;;;;;;;3.53;0.90;;;;;;;24.12;44.03;101067.16;5071954;28;20040;-71
2021/08/03 09:55:08;;;;;;;1.25;0.85;;;;;;;22.03;46.77;101060.44;5071585;28;20090;-71
2021/08/03 09:57:34;;;;;;;1.85;1.00;;;;;;;23.35;43.75;101068.34;5071783;28;20510;-71
2021/08/03 09:59:59;;;;;;;1.88;0.77;;;;;;;22.24;50.21;101061.84;5072827;28;20211;-71
2021/08/03 10:02:27;;;;;;;2.50;0.90;;;;;;;23.56;44.71;101053.25;5071869;28;20377;-71
2021/08/03 10:04:54;;;;;;;2.20;0.70;;;;;;;23.88;44.86;101062.88;5072504;28;20357;-71
2021/08/03 10:07:20;;;;;;;2.30;0.80;;;;;;;23.45;45.44;101061.47;5072447;28;20515;-71
2021/08/03 10:09:48;;;;;;;1.73;1.20;;;;;;;22.66;45.47;101051.75;5072611;28;20575;-71
2021/08/03 10:12:14;;;;;;;2.20;0.80;;;;;;;23.03;46.03;101048.00;5071514;28;20052;-71
2021/08/03 10:14:40;;;;;;;0.90;0.90;;;;;;;23.60;45.93;101054.44;5071417;28;20041;-71
2021/08/03 10:17:08;;;;;;;2.85;0.93;;;;;;;25.56;41.37;101053.00;5054730;28;20040;-71
2021/08/03 10:19:38;;;;;;;2.35;1.08;;;;;;;24.43;41.70;101051.34;5071571;28;20703;-71
2021/08/03 10:22:18;;;;;;;2.13;0.95;;;;;;;22.80;45.95;101046.91;5072199;28;20112;-71
2021/08/03 10:25:15;;;;;;;3.15;0.85;;;;;;;23.36;45.01;101053.63;5071472;28;20040;-71
2021/08/03 10:27:43;;;;;;;0.95;0.90;;;;;;;23.97;43.64;101056.78;5063121;28;20152;-71
2021/08/03 10:30:29;;;;;;;3.50;1.00;;;;;;;23.55;43.19;101045.31;5071625;28;20025;-71
2021/08/03 10:32:57;;;;;;;1.45;0.88;;;;;;;23.46;45.01;101052.19;5072275;28;20051;-71
2021/08/03 10:35:49;;;;;;;2.53;0.68;;;;;;;23.22;44.02;101057.69;5072263;28;20067;-71
2021/08/03 10:38:19;;;;;;;0.70;0.70;;;;;;;22.74;46.91;101053.31;5072294;28;20060;-71
2021/08/03 10:40:44;;;;;;;1.13;0.70;;;;;;;22.18;47.60;101052.72;5072060;28;20048;-71
2021/08/03 10:43:22;;;;;;;1.60;0.90;;;;;;;21.54;47.48;101046.91;5071112;28;20070;-70
2021/08/03 10:45:49;;;;;;;1.17;1.00;;;;;;;21.47;47.74;101046.97;5070598;28;20343;-70
2021/08/03 10:48:53;;;;;;;2.15;0.90;;;;;;;21.08;48.53;101051.75;5071954;28;20107;-70
2021/08/03 10:51:18;;;;;;;3.88;0.90;;;;;;;21.14;47.95;101046.47;5049659;28;20044;-70
2021/08/03 10:54:05;;;;;;;2.30;1.00;;;;;;;21.86;48.71;101049.41;5063396;28;20044;-70
2021/08/03 10:56:52;;;;;;;3.00;0.90;;;;;;;20.97;49.53;101047.06;5071351;28;20028;-70
2021/08/03 10:59:37;;;;;;;2.55;1.10;;;;;;;21.27;47.82;101046.34;5070999;28;20460;-70
2021/08/03 11:02:06;;;;;;;1.27;1.00;;;;;;;20.71;50.59;101045.44;5071649;28;20447;-70
2021/08/03 11:04:40;;;;;;;3.15;1.08;;;;;;;21.50;49.78;101041.09;5071674;28;20040;-70
2021/08/03 11:07:24;;;;;;;1.27;1.13;;;;;;;22.06;46.01;101038.25;5070416;28;20048;-70
2021/08/03 11:09:51;;;;;;;0.73;0.60;;;;;;;21.24;49.48;101035.94;5071741;28;20358;-70
2021/08/03 11:12:35;;;;;;;1.55;1.10;;;;;;;21.68;48.77;101044.81;5071265;28;20095;-70
2021/08/03 11:15:20;;;;;;;4.55;1.05;;;;;;;22.88;47.32;101037.59;5070531;28;20033;-70
2021/08/03 11:17:59;;;;;;;1.02;0.90;;;;;;;21.86;45.73;101033.09;5070142;28;20479;-70
2021/08/03 11:20:34;;;;;;;5.45;1.00;;;;;;;20.81;48.07;101037.66;5070180;28;20162;-70
2021/08/03 11:23:07;;;;;;;2.28;0.82;;;;;;;21.12;49.31;101041.31;5053392;28;20033;-70
2021/08/03 11:25:33;;;;;;;2.38;0.90;;;;;;;21.60;49.04;101042.44;5053608;28;20114;-70
2021/08/03 11:28:11;;;;;;;1.77;1.10;;;;;;;22.37;47.59;101039.06;5070481;28;20031;-70
2021/08/03 11:30:40;;;;;;;3.40;1.10;;;;;;;22.06;48.27;101033.66;5070589;28;20032;-70
2021/08/03 11:33:06;;;;;;;1.00;0.90;;;;;;;22.65;46.48;101041.94;5070182;28;20063;-70
2021/08/03 11:35:32;;;;;;;2.30;1.00;;;;;;;21.80;47.38;101039.47;5070207;28;20020;-70
2021/08/03 11:38:02;;;;;;;2.10;1.15;;;;;;;21.43;46.75;101034.09;5070881;28;20048;-71